• Join FlightAware (Why Join?)
  • Login
  • US Flag 
01:24PM EDT


 

Airport Tracker/Info


-or-


 

Live Flight TrackerFlight Track Log ✈ ASQ4976 ✈ 27-Apr-2013 ✈ KBOS - KDTW

Flight Track Log - Related Links

Times and Time Zones

All times are in EDT time to prevent confusion due to time zone crossing. See the ASQ4976 flight status page for this flight to view local times or setup timezone preferences in your user account.

Time Position Orientation Groundspeed Altitude Reporting Facility
EDT Latitude Longitude Course Direction KTS MPH feet Rate Location/Type
11:12AM 42.3667 -70.9833 90° East 157 181 700  Level KA90
11:13AM 42.3667 -70.9333 90° East 188 216 1,800 2,160 Climbing KA90
11:14AM 42.3992 -70.8122 70° East 272 313 5,500 2,760 Climbing Boston Center
11:15AM 42.4631 -70.7683 27° Northeast 237 273 8,700 2,700 Climbing Boston Center
11:16AM 42.5286 -70.8231 328° Northwest 207 238 10,900 1,800 Climbing Boston Center
11:17AM 42.5819 -70.9231 306° West 254 292 12,400 1,620 Climbing Boston Center
11:18AM 42.6375 -71.0206 308° West 340 391 14,200 1,920 Climbing Boston Center
11:19AM 42.7056 -71.1403 308° West 368 423 16,300 1,800 Climbing Boston Center
11:20AM 42.7631 -71.2411 308° West 381 438 17,800 1,380 Climbing Boston Center
11:21AM 42.7978 -71.3958 287° West 374 430 19,100 1,380 Climbing Boston Center
11:22AM 42.8136 -71.5428 278° West 386 444 20,600 1,380 Climbing Boston Center
11:23AM 42.8186 -71.6644 273° West 400 460 21,900 1,320 Climbing Boston Center
11:24AM 42.8386 -71.8483 278° West 406 467 23,300 1,260 Climbing Boston Center
11:25AM 42.8519 -72.0039 277° West 411 473 24,500 1,020 Climbing Boston Center
11:26AM 42.8669 -72.1625 277° West 417 480 25,400 900 Climbing Boston Center
11:27AM 42.8858 -72.3211 279° West 422 486 26,400 960 Climbing Boston Center
11:28AM 42.9028 -72.4825 278° West 427 491 27,400 900 Climbing Boston Center
11:29AM 42.9108 -72.6103 275° West 427 491 28,200 1,020 Climbing Boston Center
11:30AM 42.9189 -72.7861 274° West 427 491 29,500 1,140 Climbing Boston Center
11:31AM 42.9328 -72.9478 277° West 427 491 30,500 900 Climbing Boston Center
11:32AM 42.9506 -73.1236 278° West 427 491 31,400 840 Climbing Boston Center
11:33AM 42.9642 -73.2856 277° West 427 491 32,200 780 Climbing Boston Center
11:34AM 42.9711 -73.4447 273° West 427 491 33,000 780 Climbing Boston Center
11:35AM 42.9842 -73.6067 276° West 427 491 33,800 840 Climbing Boston Center
11:36AM 42.9992 -73.7658 277° West 427 491 34,700 840 Climbing Boston Center
11:37AM 43.0097 -73.9222 275° West 427 491 35,500 600 Climbing Boston Center
11:38AM 43.0222 -74.0817 276° West 427 491 36,000 240 Climbing Boston Center
11:39AM 43.0344 -74.2411 276° West 427 491 36,000  Level Boston Center
11:40AM 43.0461 -74.4061 276° West 433 498 36,000  Level Boston Center
11:41AM 43.0561 -74.5486 276° West 433 498 36,000  Level Boston Center
11:42AM 43.0697 -74.7167 276° West 439 505 36,000  Level Boston Center
11:43AM 43.0808 -74.8792 275° West 439 505 36,000  Level Boston Center
11:44AM 43.0897 -75.0389 274° West 439 505 36,000  Level Boston Center
11:45AM 43.1006 -75.2042 275° West 439 505 36,000  Level Boston Center
11:46AM 43.1111 -75.3669 275° West 439 505 36,000  Level Boston Center
11:47AM 43.1214 -75.5267 275° West 439 505 36,000  Level Boston Center
11:48AM 43.1314 -75.6894 275° West 439 505 36,000  Level Boston Center
11:49AM 43.1411 -75.8550 275° West 439 505 36,000  Level Boston Center
11:50AM 43.1506 -76.0233 274° West 439 505 36,000  Level Boston Center
11:51AM 43.1600 -76.1864 275° West 444 511 36,000  Level Boston Center
11:52AM 43.1417 -76.4144 264° West 459 528 36,000  Level Cleveland Center
11:53AM 43.1308 -76.5775 265° West 454 522 36,000  Level Cleveland Center
11:54AM 43.1150 -76.7264 262° West 449 517 36,000  Level Cleveland Center
11:55AM 43.1017 -76.8894 264° West 444 511 36,000  Level Cleveland Center
11:56AM 43.0858 -77.0494 262° West 439 505 36,000  Level Cleveland Center
11:57AM 43.0717 -77.2094 263° West 434 499 36,000  Level Cleveland Center
11:58AM 43.0556 -77.3694 262° West 429 494 36,000  Level Cleveland Center
11:59AM 43.0428 -77.5208 263° West 416 479 36,000  Level Cleveland Center
12:00PM 43.0300 -77.6719 263° West 410 472 36,000  Level Cleveland Center
12:01PM 43.0131 -77.8261 262° West 410 472 36,000  Level Cleveland Center
12:02PM 42.9978 -77.9800 262° West 410 472 36,000  Level Cleveland Center
12:03PM 42.9825 -78.1342 262° West 410 472 36,000  Level Cleveland Center
12:04PM 42.9689 -78.2822 263° West 410 472 36,000  Level Cleveland Center
12:05PM 42.9508 -78.4331 261° West 410 472 36,000  Level Cleveland Center
12:06PM 42.9369 -78.5894 263° West 415 478 36,000  Level Cleveland Center
12:07PM 42.9167 -78.7433 260° West 415 478 36,000  Level Cleveland Center
12:08PM 42.8939 -78.8942 258° West 415 478 36,000  Level Cleveland Center
12:09PM 42.8711 -79.0478 259° West 415 478 36,000  Level Cleveland Center
12:10PM 42.8500 -79.1956 259° West 415 478 36,000  Level Cleveland Center
12:11PM 42.8289 -79.3489 259° West 415 478 36,000  Level Cleveland Center
12:12PM 42.8053 -79.4964 258° West 410 472 36,000 -540 Level Cleveland Center
12:13PM 42.7858 -79.6439 260° West 410 472 35,000 -1,020 Descending Cleveland Center
12:14PM 42.7619 -79.7942 258° West 410 472 34,000 -1,020 Descending Cleveland Center
12:15PM 42.7481 -79.9500 263° West 410 472 33,000 -1,140 Descending Cleveland Center
12:16PM 42.7386 -80.1253 266° West 415 478 31,800 -1,140 Descending Cleveland Center
12:17PM 42.7328 -80.2750 267° West 415 478 30,800 -960 Descending Cleveland Center
12:18PM 42.7269 -80.4278 267° West 405 466 29,900 -1,020 Descending Cleveland Center
12:19PM 42.7186 -80.5831 266° West 405 466 28,800 -1,080 Descending Cleveland Center
12:20PM 42.7144 -80.7331 268° West 405 466 27,800 -1,020 Descending Cleveland Center
12:21PM 42.7058 -80.8769 265° West 395 455 26,800 -1,020 Descending Cleveland Center
12:22PM 42.6886 -81.0208 261° West 395 455 25,800 -1,020 Descending Cleveland Center
12:23PM 42.6756 -81.1650 263° West 390 449 24,800 -900 Descending Cleveland Center
12:24PM 42.6581 -81.3089 261° West 385 443 24,000 -720 Descending Cleveland Center
12:25PM 42.6425 -81.4383 261° West 391 450 23,400 -840 Descending Cleveland Center
12:26PM 42.6267 -81.5764 261° West 383 441 22,400 -1,020 Descending Cleveland Center
12:27PM 42.6111 -81.7117 261° West 378 435 21,400 -1,020 Descending Cleveland Center
12:28PM 42.5928 -81.8581 260° West 372 428 20,400 -1,140 Descending Cleveland Center
12:29PM 42.5767 -81.9931 261° West 372 428 19,200 -1,320 Descending Cleveland Center
12:30PM 42.5583 -82.1250 259° West 372 428 17,800 -1,680 Descending Cleveland Center
12:32PM 42.5436 -82.2711 262° West 353 406 15,700 -1,800 Descending Cleveland Center
12:32PM 42.5253 -82.3833 258° West 366 421 14,200 -1,620 Descending Cleveland Center
12:33PM 42.5108 -82.5069 261° West 352 405 12,600 -1,200 Descending Cleveland Center
12:34PM 42.4756 -82.6128 246° West 329 379 11,900 -840 Descending Cleveland Center
12:35PM 42.4261 -82.6956 231° Southwest 307 353 11,000 -900 Descending Cleveland Center
12:36PM 42.3853 -82.7675 232° Southwest 278 320 10,100 -960 Descending Cleveland Center
12:37PM 42.3486 -82.8364 234° Southwest 253 291 9,100 -1,140 Descending Cleveland Center
12:38PM 42.3197 -82.9139 243° Southwest 234 269 7,900 -1,200 Descending Cleveland Center
12:39PM 42.3131 -82.9419 252° West 222 255 7,500 -900 Descending Cleveland Center
12:39PM 42.2953 -82.9889 243° Southwest 222 255 7,000 -420 Descending Cleveland Center
12:40PM 42.2906 -83.0225 259° West 234 269 7,100  Climbing Cleveland Center
12:40PM 42.2894 -83.0728 268° West 217 250 7,000  Descending Cleveland Center
12:41PM 42.3056 -83.1017 307° West 242 278 7,100 -300 Climbing Cleveland Center
12:41PM 42.3408 -83.1058 355° North 163 188 6,700 -900 Descending Cleveland Center
12:42PM 42.3725 -83.0875 23° Northeast 246 283 6,200 -480 Descending Cleveland Center
12:43PM 42.4253 -83.0586 22° Northeast 219 252 6,100 -120 Descending Cleveland Center
12:44PM 42.4614 -83.1161 310° West 201 231 6,000 -60 Descending Cleveland Center
12:45PM 42.4436 -83.1747 248° West 169 194 6,000 -600 Level Cleveland Center
12:46PM 42.3992 -83.2036 206° Southwest 173 199 4,800 -1,080 Descending Cleveland Center
12:47PM 42.3567 -83.2328 207° Southwest 166 191 3,900 -960 Descending Cleveland Center
12:48PM 42.3142 -83.2647 209° Southwest 170 196 2,900 -960 Descending Cleveland Center
12:49PM 42.2739 -83.2939 208° Southwest 158 182 2,000 -900 Descending Cleveland Center